Time;durP1;ratioP1;P1;durP2;ratioP2;P2;SDS_P1;SDS_P2;PMS_P1;PMS_P2;Temp;Humidity;BMP_temperature;BMP_pressure;BME280_temperature;BME280_humidity;BME280_pressure;Samples;Min_cycle;Max_cycle;Signal;HPM_P1;HPM_P2
2022/01/13 00:00:55;;;;;;;60.33;24.67;;;2.50;99.90;;;3.61;100.00;102959.13;5071940;28;20340;-83
2022/01/13 00:03:33;;;;;;;59.30;24.88;;;2.50;99.90;;;3.67;100.00;102967.25;5055695;28;20063;-82
2022/01/13 00:05:59;;;;;;;50.13;24.05;;;2.50;99.90;;;3.72;100.00;102974.78;5055385;28;20060;-83
2022/01/13 00:08:24;;;;;;;56.80;25.35;;;2.50;99.90;;;3.64;100.00;102976.06;5055333;28;20066;-82
2022/01/13 00:10:50;;;;;;;56.17;24.83;;;2.50;99.90;;;3.64;100.00;102977.97;5057416;28;20032;-82
2022/01/13 00:13:24;;;;;;;58.85;24.73;;;2.40;99.90;;;3.65;100.00;102990.72;5055924;28;20025;-81
2022/01/13 00:18:49;;;;;;;52.80;25.02;;;2.40;99.90;;;3.52;100.00;102985.56;5073808;28;20062;-82
2022/01/13 00:21:40;;;;;;;53.40;23.05;;;2.40;99.90;;;3.58;100.00;102987.28;5017372;28;1082267;-83
2022/01/13 00:24:05;;;;;;;53.42;23.27;;;2.40;99.90;;;3.51;100.00;102998.53;5073562;28;20045;-83
2022/01/13 00:26:34;;;;;;;58.00;24.40;;;2.40;99.90;;;3.53;100.00;102995.53;5073374;28;20508;-81
2022/01/13 00:29:02;;;;;;;62.55;26.48;;;2.40;99.90;;;3.43;100.00;102987.06;5056852;28;20032;-84
2022/01/13 00:31:34;;;;;;;59.72;25.48;;;2.30;99.90;;;3.51;100.00;102986.63;5056437;28;20039;-83
2022/01/13 00:34:07;;;;;;;60.47;26.55;;;2.30;99.90;;;3.52;100.00;102986.38;5056596;28;20403;-81
2022/01/13 00:36:37;;;;;;;57.03;24.40;;;2.30;99.90;;;3.54;100.00;102986.13;5056297;28;20042;-82
2022/01/13 00:39:08;;;;;;;55.42;25.88;;;2.30;99.90;;;3.50;100.00;102971.97;5056333;28;20032;-82
2022/01/13 00:41:35;;;;;;;52.58;25.58;;;2.30;99.90;;;3.53;100.00;102979.75;5056221;28;20029;-81
2022/01/13 00:44:06;;;;;;;58.15;26.52;;;2.30;99.90;;;3.57;100.00;102978.16;5055991;28;20033;-80
2022/01/13 00:46:46;;;;;;;65.15;26.10;;;2.30;99.90;;;3.49;100.00;102973.09;5055659;28;20063;-82
2022/01/13 00:49:14;;;;;;;67.22;27.02;;;2.30;99.90;;;3.42;100.00;102974.34;5056259;28;20021;-82
2022/01/13 00:51:42;;;;;;;64.53;28.23;;;2.30;99.90;;;3.42;100.00;102982.63;5055938;28;20483;-80
2022/01/13 00:54:08;;;;;;;56.85;26.30;;;2.30;99.90;;;3.41;100.00;102970.75;5055963;28;20075;-81
2022/01/13 00:56:37;;;;;;;59.83;28.25;;;2.30;99.90;;;3.35;100.00;102977.28;5072328;28;20047;-81
2022/01/13 00:59:13;;;;;;;66.53;29.20;;;2.30;99.90;;;3.45;100.00;102980.19;5073852;28;20075;-81
2022/01/13 01:01:52;;;;;;;;;;;2.30;99.90;;;3.49;100.00;102986.06;5073201;28;20063;-81
2022/01/13 01:04:29;;;;;;;62.78;26.48;;;2.30;99.90;;;3.41;100.00;102984.56;5056580;28;20086;-83
2022/01/13 01:06:59;;;;;;;71.40;29.42;;;2.30;99.90;;;3.38;100.00;102979.53;5072536;28;20073;-82
2022/01/13 01:09:39;;;;;;;63.75;28.88;;;2.30;99.90;;;3.34;100.00;102978.38;5056260;28;20123;-81
2022/01/13 01:12:09;;;;;;;66.35;27.98;;;2.30;99.90;;;3.33;100.00;102987.75;5055874;28;20028;-81
2022/01/13 01:14:40;;;;;;;69.45;29.38;;;2.20;99.90;;;3.25;100.00;102984.56;5055655;28;20024;-81
2022/01/13 01:17:06;;;;;;;71.88;29.27;;;2.20;99.90;;;3.25;100.00;102976.28;5056053;28;20040;-80
2022/01/13 01:19:32;;;;;;;66.88;29.58;;;2.20;99.90;;;3.15;100.00;102969.53;5055520;28;20032;-82
2022/01/13 01:27:38;;;;;;;65.68;27.83;;;2.10;99.90;;;3.29;100.00;102997.63;5053992;28;20056;-81
2022/01/13 01:30:26;;;;;;;69.95;29.92;;;2.10;99.90;;;3.32;100.00;102999.91;5052502;28;20035;-83
2022/01/13 01:32:53;;;;;;;73.68;29.67;;;2.10;99.90;;;3.31;100.00;103002.94;5059410;28;20017;-85
2022/01/13 01:35:25;;;;;;;72.63;32.40;;;2.20;99.90;;;3.34;100.00;103000.47;5061398;28;20028;-82
2022/01/13 01:37:55;;;;;;;70.00;29.98;;;2.20;99.90;;;3.38;100.00;103006.31;5074871;28;20123;-83
2022/01/13 01:40:23;;;;;;;68.90;29.77;;;2.20;99.90;;;3.41;100.00;103009.41;5058450;28;20082;-84
2022/01/13 01:42:49;;;;;;;70.15;30.92;;;2.20;99.90;;;3.34;100.00;103021.75;5057455;28;20028;-83
2022/01/13 01:45:19;;;;;;;76.80;32.05;;;2.20;99.90;;;3.43;100.00;103011.94;5074883;28;20028;-83
2022/01/13 01:47:49;;;;;;;73.78;31.25;;;2.20;99.90;;;3.25;100.00;103012.19;5073463;28;20114;-83
2022/01/13 01:50:21;;;;;;;71.47;30.40;;;2.20;99.90;;;3.27;100.00;103010.03;5073172;28;20446;-81
2022/01/13 01:52:53;;;;;;;80.05;31.85;;;2.20;99.90;;;3.30;100.00;103007.59;5055699;28;20025;-81
2022/01/13 01:55:25;;;;;;;73.15;31.60;;;2.20;99.90;;;3.40;100.00;103007.75;5055600;28;20025;-82
2022/01/13 01:57:54;;;;;;;68.10;29.02;;;2.20;99.90;;;3.45;100.00;103007.00;5072313;28;20052;-82
2022/01/13 02:00:26;;;;;;;76.28;30.88;;;2.30;99.90;;;3.22;100.00;103008.00;5056038;28;20025;-83
2022/01/13 02:02:55;;;;;;;80.78;32.00;;;2.30;99.90;;;3.33;100.00;103006.25;5055751;28;20032;-81
2022/01/13 02:05:21;;;;;;;70.80;30.63;;;2.30;99.90;;;3.44;100.00;103002.53;5057141;28;20510;-84
2022/01/13 02:07:47;;;;;;;70.03;29.65;;;2.30;99.90;;;3.41;100.00;103003.88;5065984;28;20049;-85
2022/01/13 02:10:14;;;;;;;75.70;30.65;;;2.30;99.90;;;3.42;100.00;102997.28;5071068;28;20032;-85
2022/01/13 02:12:46;;;;;;;71.38;28.88;;;2.30;99.90;;;3.44;100.00;103002.53;5067002;28;20120;-82
2022/01/13 02:17:43;;;;;;;76.38;31.90;;;2.30;99.90;;;3.35;100.00;103002.16;5056789;28;20452;-81
2022/01/13 02:20:17;;;;;;;71.35;29.75;;;2.20;99.90;;;3.32;100.00;103001.81;5056036;28;20045;-80
2022/01/13 02:22:43;;;;;;;71.88;29.77;;;2.30;99.90;;;3.36;100.00;102997.47;5055253;28;20488;-82
2022/01/13 02:25:13;;;;;;;67.65;28.33;;;2.20;99.90;;;3.33;100.00;102998.81;5059055;28;20146;-81
2022/01/13 02:27:44;;;;;;;74.78;31.13;;;2.30;99.90;;;3.35;100.00;102985.56;5077007;28;20119;-82
2022/01/13 02:30:11;;;;;;;70.60;30.90;;;2.20;99.90;;;3.42;100.00;102983.47;5058342;28;20032;-79
2022/01/13 02:32:40;;;;;;;68.35;30.80;;;2.20;99.90;;;3.36;100.00;102984.50;5075748;28;20033;-82
2022/01/13 02:35:07;;;;;;;80.57;30.73;;;2.20;99.90;;;3.36;100.00;102991.94;5076934;28;20032;-83
2022/01/13 02:37:33;;;;;;;69.05;31.00;;;2.20;99.90;;;3.25;100.00;102996.47;5057711;28;20028;-83
2022/01/13 02:39:59;;;;;;;75.93;29.48;;;2.20;99.90;;;3.16;100.00;102990.53;5058003;28;20101;-83
2022/01/13 02:42:29;;;;;;;70.60;29.85;;;2.20;99.90;;;3.24;100.00;102992.03;5058087;28;20395;-81
2022/01/13 02:45:14;;;;;;;75.10;28.17;;;2.20;99.90;;;3.29;100.00;102981.06;5058041;28;20032;-82
2022/01/13 02:50:11;;;;;;;72.35;29.40;;;2.20;99.90;;;3.31;100.00;102980.81;5075494;28;20132;-82
2022/01/13 02:52:40;;;;;;;76.72;29.52;;;2.20;99.90;;;3.31;100.00;102983.59;5074485;28;20029;-81
2022/01/13 02:55:08;;;;;;;71.55;29.25;;;2.20;99.90;;;3.41;100.00;102976.25;5057721;28;20455;-83
2022/01/13 02:57:35;;;;;;;70.05;29.30;;;2.20;99.90;;;3.40;100.00;102980.13;5057485;28;20025;-80
2022/01/13 03:00:07;;;;;;;77.05;30.30;;;2.20;99.90;;;3.42;100.00;102977.94;5057093;28;20036;-81
2022/01/13 03:02:33;;;;;;;69.00;28.65;;;2.20;99.90;;;3.42;100.00;102974.34;5056975;28;20033;-82
2022/01/13 03:05:00;;;;;;;70.03;28.67;;;2.20;99.90;;;3.35;100.00;102976.44;5056972;28;20123;-81
2022/01/13 03:07:30;;;;;;;79.65;30.63;;;2.20;99.90;;;3.37;100.00;102966.00;5057345;28;20036;-81
2022/01/13 03:09:59;;;;;;;75.43;30.60;;;2.20;99.90;;;3.37;100.00;102972.34;5056947;28;20036;-82
2022/01/13 03:12:27;;;;;;;82.43;32.50;;;2.20;99.90;;;3.38;100.00;102962.97;5057434;28;20033;-82
2022/01/13 03:14:53;;;;;;;79.05;31.88;;;2.20;99.90;;;3.36;100.00;102956.03;5056790;28;20037;-82
2022/01/13 03:17:18;;;;;;;72.07;28.63;;;2.20;99.90;;;3.35;100.00;102966.22;5057309;28;20044;-82
2022/01/13 03:19:47;;;;;;;78.45;29.77;;;2.20;99.90;;;3.36;100.00;102967.06;5057547;28;20032;-82
2022/01/13 03:22:14;;;;;;;73.22;29.70;;;2.20;99.90;;;3.40;100.00;102977.38;5062004;22;20052;-77
2022/01/13 03:24:40;;;;;;;79.93;33.00;;;2.20;99.90;;;3.35;100.00;102977.28;5034824;28;20026;-78
2022/01/13 03:27:07;;;;;;;80.47;31.40;;;2.20;99.90;;;3.30;100.00;102968.94;5054818;28;20396;-79
2022/01/13 03:29:33;;;;;;;78.97;31.75;;;2.20;99.90;;;3.33;100.00;102968.44;5053404;28;20075;-76
2022/01/13 03:31:59;;;;;;;78.40;32.78;;;2.20;99.90;;;3.34;100.00;102967.31;5056732;28;20030;-76
2022/01/13 03:34:25;;;;;;;79.47;30.80;;;2.20;99.90;;;3.34;100.00;102972.84;5045445;28;20033;-78
2022/01/13 03:36:51;;;;;;;74.10;28.40;;;2.20;99.90;;;3.39;100.00;102970.16;5040156;28;20049;-77
2022/01/13 03:39:20;;;;;;;83.40;31.38;;;2.20;99.90;;;3.36;100.00;102976.19;5021712;28;20127;-77
2022/01/13 03:41:46;;;;;;;87.55;32.88;;;2.20;99.90;;;3.42;100.00;102974.34;5038190;28;20117;-78
2022/01/13 03:44:27;;;;;;;82.13;32.40;;;2.30;99.90;;;3.42;100.00;102964.13;5017947;28;20079;-78
2022/01/13 03:46:56;;;;;;;99.05;34.00;;;2.30;99.90;;;3.35;100.00;102965.41;5017353;28;20025;-79
2022/01/13 03:49:25;;;;;;;92.47;33.05;;;2.30;99.90;;;3.40;100.00;102963.56;5017922;28;20059;-77
2022/01/13 03:52:04;;;;;;;89.30;32.30;;;2.30;99.90;;;3.33;100.00;102967.59;5036287;28;20033;-78
2022/01/13 03:54:36;;;;;;;89.10;32.00;;;2.30;99.90;;;3.38;100.00;102962.97;5034152;28;20061;-77
2022/01/13 03:57:32;;;;;;;85.53;32.20;;;2.30;99.90;;;3.36;100.00;102965.16;5053394;28;20034;-77
2022/01/13 04:01:06;;;;;;;90.55;34.17;;;2.30;99.90;;;3.47;100.00;102963.34;5040291;28;20300;-78
2022/01/13 04:03:32;;;;;;;95.35;34.75;;;2.30;99.90;;;3.40;100.00;102954.44;5021785;28;20104;-78
2022/01/13 04:06:11;;;;;;;86.03;32.20;;;2.30;99.90;;;3.39;100.00;102952.75;5039515;28;20065;-78
2022/01/13 04:08:39;;;;;;;87.55;34.42;;;2.30;99.90;;;3.37;100.00;102958.50;5041692;28;20064;-77
2022/01/13 04:11:05;;;;;;;86.35;32.67;;;2.30;99.90;;;3.50;100.00;102949.88;5023992;28;20029;-77
2022/01/13 04:13:49;;;;;;;95.25;33.53;;;2.30;99.90;;;3.46;100.00;102953.41;5025670;28;20110;-79
2022/01/13 04:16:27;;;;;;;77.90;31.00;;;2.30;99.90;;;3.51;100.00;102939.66;5040306;28;20026;-77
2022/01/13 04:19:02;;;;;;;90.95;33.58;;;2.30;99.90;;;3.45;100.00;102935.16;5039264;28;20028;-77
2022/01/13 04:21:38;;;;;;;89.55;32.90;;;2.30;99.90;;;3.53;100.00;102935.53;5040216;28;20508;-77
2022/01/13 04:24:10;;;;;;;91.00;32.67;;;2.30;99.90;;;3.54;100.00;102934.47;5020675;28;20084;-78
2022/01/13 04:26:41;;;;;;;93.95;34.00;;;2.40;99.90;;;3.60;100.00;102932.59;5022924;28;20477;-77
2022/01/13 04:31:51;;;;;;;87.45;33.78;;;2.40;99.90;;;3.62;100.00;102942.31;5017357;28;20036;-77
2022/01/13 04:34:18;;;;;;;91.55;34.15;;;2.40;99.90;;;3.64;100.00;102933.75;5021626;28;20080;-78
2022/01/13 04:36:47;;;;;;;101.03;37.25;;;2.40;99.90;;;3.60;100.00;102927.06;5013519;28;20033;-77
2022/01/13 04:39:16;;;;;;;95.20;35.55;;;2.40;99.90;;;3.54;100.00;102930.84;5013071;28;20129;-78
2022/01/13 04:41:46;;;;;;;106.82;38.20;;;2.40;99.90;;;3.40;100.00;102922.13;5013017;28;20068;-76
2022/01/13 04:44:19;;;;;;;94.30;35.75;;;2.40;99.90;;;3.52;100.00;102930.28;4995160;28;20033;-79
2022/01/13 04:46:55;;;;;;;91.20;32.63;;;2.30;99.90;;;3.58;100.00;102930.09;4995714;28;20112;-79
2022/01/13 04:49:22;;;;;;;94.68;33.28;;;2.40;99.90;;;3.59;100.00;102926.25;5013159;28;20437;-77
2022/01/13 04:51:50;;;;;;;94.82;34.15;;;2.40;99.90;;;3.61;100.00;102928.75;5012829;28;20030;-77
2022/01/13 04:54:19;;;;;;;94.78;31.95;;;2.40;99.90;;;3.64;100.00;102926.31;4995156;28;20116;-78
2022/01/13 04:59:17;;;;;;;90.93;32.42;;;2.40;99.90;;;3.61;100.00;102925.97;5012991;28;20452;-77
2022/01/13 05:01:43;;;;;;;85.70;33.05;;;2.40;99.90;;;3.60;100.00;102927.06;5012577;28;20033;-77
2022/01/13 05:04:10;;;;;;;83.22;31.08;;;2.40;99.90;;;3.55;100.00;102936.13;5012685;28;20029;-78
2022/01/13 05:06:37;;;;;;;77.30;31.17;;;2.40;99.90;;;3.61;100.00;102925.97;4994563;28;20116;-78
2022/01/13 05:09:04;;;;;;;76.55;29.63;;;2.30;99.90;;;3.59;100.00;102926.25;5012924;28;20037;-77
2022/01/13 05:11:32;;;;;;;83.05;30.52;;;2.40;99.90;;;3.58;100.00;102926.50;4994617;28;20476;-77
2022/01/13 05:13:58;;;;;;;90.40;32.72;;;2.40;99.90;;;3.51;100.00;102932.22;5012972;28;20038;-78
2022/01/13 05:16:31;;;;;;;87.45;31.55;;;2.40;99.90;;;3.53;100.00;102926.44;5012660;28;20084;-76
2022/01/13 05:19:12;;;;;;;80.63;30.00;;;2.40;99.90;;;3.53;100.00;102929.19;4995283;28;20026;-78
2022/01/13 05:22:22;;;;;;;86.10;31.73;;;2.30;99.90;;;3.34;100.00;102917.59;5013143;28;20489;-79
2022/01/13 05:24:27;;;;;;;72.75;30.52;;;2.30;99.90;;;3.44;100.00;102916.88;5002036;28;20102;-77
2022/01/13 05:26:57;;;;;;;85.38;30.15;;;2.30;99.90;;;3.34;100.00;102909.31;5030893;28;20033;-77
2022/01/13 05:29:29;;;;;;;75.57;30.17;;;2.30;99.90;;;3.37;100.00;102906.03;5016270;28;20520;-78
2022/01/13 05:31:55;;;;;;;82.95;31.40;;;2.30;99.90;;;3.42;100.00;102911.63;5015383;28;20136;-77
2022/01/13 05:34:21;;;;;;;83.15;31.08;;;2.30;99.90;;;3.37;100.00;102908.78;5018836;28;20036;-78
2022/01/13 05:36:47;;;;;;;81.07;31.40;;;2.30;99.90;;;3.27;100.00;102897.63;5019168;28;20054;-78
2022/01/13 05:39:18;;;;;;;88.32;30.98;;;2.30;99.90;;;3.35;100.00;102902.69;5043022;28;20119;-78
2022/01/13 05:41:44;;;;;;;81.63;32.35;;;2.30;99.90;;;3.43;100.00;102902.28;5038558;28;20027;-77
2022/01/13 05:44:10;;;;;;;80.43;31.02;;;2.30;99.90;;;3.41;100.00;102895.31;5017732;28;20028;-79
2022/01/13 05:46:36;;;;;;;77.35;31.42;;;2.30;99.90;;;3.29;100.00;102898.19;5017331;28;20125;-78
2022/01/13 05:49:02;;;;;;;93.43;30.80;;;2.30;99.90;;;3.32;100.00;102903.22;5036659;28;20026;-77
2022/01/13 05:51:27;;;;;;;74.03;29.25;;;2.20;99.90;;;3.31;100.00;102907.06;5016051;28;20441;-77
2022/01/13 05:53:53;;;;;;;74.22;30.27;;;2.30;99.90;;;3.40;100.00;102907.47;5016392;28;20037;-78
2022/01/13 05:56:19;;;;;;;87.95;31.67;;;2.20;99.90;;;3.28;100.00;102917.78;5016235;28;20077;-77
2022/01/13 05:58:45;;;;;;;80.80;30.92;;;2.20;99.90;;;3.31;100.00;102923.63;5017720;28;20022;-77
2022/01/13 06:01:13;;;;;;;86.10;32.63;;;2.20;99.90;;;3.30;100.00;102927.50;5038591;28;20034;-77
2022/01/13 06:03:48;;;;;;;77.53;31.92;;;2.20;99.90;;;3.31;100.00;102923.63;5036965;28;20289;-78
2022/01/13 06:06:14;;;;;;;75.97;30.58;;;2.20;99.90;;;3.39;100.00;102912.16;5036286;28;20033;-78
2022/01/13 06:08:40;;;;;;;77.88;31.85;;;2.20;99.90;;;3.42;100.00;102913.56;5015746;28;20060;-78
2022/01/13 06:11:06;;;;;;;78.05;31.25;;;2.20;99.90;;;3.42;100.00;102911.63;5032475;28;20064;-78
2022/01/13 06:13:31;;;;;;;76.00;31.92;;;2.20;99.90;;;3.44;100.00;102914.13;5031927;28;20536;-78
2022/01/13 06:15:57;;;;;;;88.85;31.70;;;2.30;99.90;;;3.44;100.00;102914.97;5031765;28;20057;-77
2022/01/13 06:18:26;;;;;;;80.85;31.10;;;2.30;99.90;;;3.42;100.00;102913.56;5015366;28;20025;-77
2022/01/13 06:20:52;;;;;;;83.97;32.00;;;2.30;99.90;;;3.30;100.00;102915.59;5034837;28;20033;-77
2022/01/13 06:23:19;;;;;;;87.93;33.28;;;2.20;99.90;;;3.36;100.00;102915.44;5034781;28;20033;-76
2022/01/13 06:25:45;;;;;;;85.15;32.25;;;2.30;99.90;;;3.39;100.00;102909.38;5025743;28;20041;-77
2022/01/13 06:28:10;;;;;;;86.63;32.28;;;2.20;99.90;;;3.47;100.00;102908.94;5015419;28;20438;-77
2022/01/13 06:30:36;;;;;;;80.45;29.63;;;2.30;99.90;;;3.55;100.00;102902.13;4997011;28;20493;-77
2022/01/13 06:33:04;;;;;;;77.50;31.85;;;2.30;99.90;;;3.55;100.00;102904.91;5015727;28;20026;-78
2022/01/13 06:35:33;;;;;;;75.35;30.52;;;2.30;99.90;;;3.46;100.00;102906.44;5017178;28;20444;-79
2022/01/13 06:37:59;;;;;;;91.75;32.22;;;2.30;99.90;;;3.40;100.00;102899.19;5017407;28;20026;-78
2022/01/13 06:40:25;;;;;;;81.30;31.77;;;2.30;99.90;;;3.29;100.00;102892.66;5018119;28;20026;-76
2022/01/13 06:42:51;;;;;;;80.35;30.40;;;2.30;99.90;;;3.34;100.00;102889.16;5001480;28;20040;-78
2022/01/13 06:45:17;;;;;;;84.40;32.88;;;2.30;99.90;;;3.26;100.00;102893.19;4997890;28;20044;-76
2022/01/13 06:47:43;;;;;;;83.57;33.60;;;2.30;99.90;;;3.36;100.00;102898.84;5014427;28;20493;-77
2022/01/13 06:50:20;;;;;;;80.05;32.20;;;2.20;99.90;;;3.38;100.00;102887.53;5015205;28;20037;-77
2022/01/13 06:52:47;;;;;;;84.85;33.20;;;2.30;99.90;;;3.27;100.00;102882.97;4997106;28;20087;-77
2022/01/13 06:55:14;;;;;;;82.53;34.00;;;2.20;99.90;;;3.31;100.00;102884.16;4998061;28;20417;-78
2022/01/13 06:57:40;;;;;;;92.13;33.28;;;2.20;99.90;;;3.32;100.00;102881.09;4998109;28;20122;-77
2022/01/13 07:00:07;;;;;;;85.30;33.10;;;2.20;99.90;;;3.30;100.00;102893.50;5015154;28;20062;-77
2022/01/13 07:02:36;;;;;;;81.95;33.65;;;2.20;99.90;;;3.32;100.00;102883.03;5014784;28;20034;-76
2022/01/13 07:05:02;;;;;;;78.13;30.58;;;2.20;99.90;;;3.36;100.00;102893.31;5014442;28;20036;-78
2022/01/13 07:07:36;;;;;;;80.57;31.65;;;2.20;99.90;;;3.37;100.00;102902.47;5014594;28;20441;-76
2022/01/13 07:10:04;;;;;;;81.60;33.55;;;2.20;99.90;;;3.40;100.00;102904.69;5014343;28;20041;-77
2022/01/13 07:12:30;;;;;;;91.80;34.03;;;2.20;99.90;;;3.33;100.00;102921.47;4996262;28;20076;-78
2022/01/13 07:14:57;;;;;;;86.57;33.20;;;2.20;99.90;;;3.35;100.00;102916.50;5014791;28;20455;-76
2022/01/13 07:17:27;;;;;;;91.57;33.83;;;2.20;99.90;;;3.23;100.00;102917.72;4996650;28;20025;-79
2022/01/13 07:19:52;;;;;;;90.50;33.97;;;2.20;99.90;;;3.24;100.00;102934.03;5014951;28;20021;-77
2022/01/13 07:22:19;;;;;;;96.97;34.58;;;2.20;99.90;;;3.36;100.00;102928.41;5014114;28;20512;-77
2022/01/13 07:24:48;;;;;;;89.10;33.40;;;2.20;99.90;;;3.23;100.00;102935.13;5016762;28;20400;-78
2022/01/13 07:27:14;;;;;;;84.90;31.52;;;2.20;99.90;;;3.31;100.00;102933.88;5017033;28;20562;-78
2022/01/13 07:29:42;;;;;;;86.07;33.58;;;2.20;99.90;;;3.33;100.00;102932.50;5015326;28;20037;-76
2022/01/13 07:32:12;;;;;;;83.28;33.55;;;2.20;99.90;;;3.33;100.00;102935.28;5034411;28;20033;-77
2022/01/13 07:34:39;;;;;;;89.63;33.72;;;2.20;99.90;;;3.37;100.00;102939.19;5038922;28;20036;-77
2022/01/13 07:37:05;;;;;;;82.00;33.15;;;2.20;99.90;;;3.42;100.00;102950.31;5052519;28;20024;-76
2022/01/13 07:39:35;;;;;;;94.22;34.97;;;2.20;99.90;;;3.36;100.00;102944.97;5044526;28;20021;-78
2022/01/13 07:42:06;;;;;;;90.78;34.35;;;2.20;99.90;;;3.37;100.00;102941.13;5033588;28;20105;-77
2022/01/13 07:44:32;;;;;;;90.78;33.65;;;2.20;99.90;;;3.35;100.00;102941.38;5034949;28;20064;-77
2022/01/13 07:47:00;;;;;;;90.63;34.25;;;2.20;99.90;;;3.43;100.00;102935.41;5016411;28;20025;-77
2022/01/13 07:49:29;;;;;;;84.40;32.28;;;2.20;99.90;;;3.45;100.00;102948.97;5015659;28;20499;-78
2022/01/13 07:51:56;;;;;;;101.13;35.70;;;2.20;99.90;;;3.49;100.00;102941.84;5015545;28;20052;-79
2022/01/13 07:54:25;;;;;;;88.50;33.33;;;2.30;99.90;;;3.44;100.00;102950.88;5033586;28;20452;-78
2022/01/13 07:56:54;;;;;;;88.53;33.70;;;2.20;99.90;;;3.37;100.00;102949.41;5015341;28;20124;-79
2022/01/13 07:59:20;;;;;;;80.75;33.33;;;2.20;99.90;;;3.44;100.00;102948.13;5033584;28;20029;-76
2022/01/13 08:01:46;;;;;;;98.80;36.13;;;2.30;99.90;;;3.45;100.00;102940.69;5015567;28;20048;-77
2022/01/13 08:04:12;;;;;;;84.43;33.50;;;2.30;99.90;;;3.39;100.00;102944.47;5016317;28;20033;-79
2022/01/13 08:06:38;;;;;;;90.90;35.63;;;2.20;99.90;;;3.37;100.00;102952.19;5015516;28;20033;-77
2022/01/13 08:09:05;;;;;;;96.03;34.90;;;2.30;99.90;;;3.30;100.00;102935.78;5033346;28;20030;-77
2022/01/13 08:11:30;;;;;;;98.28;34.10;;;2.30;99.90;;;3.12;100.00;102939.66;5033712;28;20049;-78
2022/01/13 08:13:59;;;;;;;93.93;35.30;;;2.30;99.90;;;3.37;100.00;102938.38;5035698;28;20036;-77
2022/01/13 08:16:33;;;;;;;92.55;34.97;;;2.30;99.90;;;3.40;100.00;102943.38;5015917;28;20503;-77
2022/01/13 08:21:43;;;;;;;86.05;32.05;;;2.30;99.90;;;3.51;100.00;102943.25;5039786;28;20491;-79
2022/01/13 08:24:09;;;;;;;93.28;33.83;;;2.40;99.90;;;3.53;100.00;102938.28;5039815;28;20037;-79
2022/01/13 08:26:35;;;;;;;89.10;33.10;;;2.40;99.90;;;3.60;100.00;102947.25;5003316;28;20032;-78
2022/01/13 08:29:01;;;;;;;87.95;33.25;;;2.40;99.90;;;3.53;100.00;102946.59;5013389;28;20450;-76
2022/01/13 08:31:33;;;;;;;81.10;32.58;;;2.40;99.90;;;3.68;100.00;102944.06;5013788;28;20037;-79
2022/01/13 08:34:02;;;;;;;87.88;32.17;;;2.50;99.90;;;3.73;100.00;102941.34;5014543;28;20022;-77
2022/01/13 08:36:27;;;;;;;91.25;31.00;;;2.50;99.90;;;3.81;100.00;102945.59;5014892;28;20036;-76
2022/01/13 08:38:53;;;;;;;81.38;32.78;;;2.60;99.90;;;3.92;100.00;102943.78;4995767;28;20025;-78
2022/01/13 08:41:22;;;;;;;77.05;28.67;;;2.70;99.90;;;4.09;100.00;102953.66;4995011;28;20036;-78
2022/01/13 08:43:51;;;;;;;73.07;27.60;;;2.80;99.90;;;4.26;100.00;102956.34;4995231;28;20040;-76
2022/01/13 08:46:18;;;;;;;73.10;29.48;;;2.90;99.90;;;4.31;100.00;102963.84;5012716;28;20532;-78
2022/01/13 08:48:43;;;;;;;66.18;28.42;;;3.00;99.90;;;4.24;100.00;102962.13;5012834;28;20042;-77
2022/01/13 08:51:09;;;;;;;71.30;27.80;;;3.00;99.90;;;4.27;100.00;102954.44;4995546;28;20034;-76
2022/01/13 08:53:38;;;;;;;68.35;28.48;;;3.00;99.90;;;4.29;100.00;102960.53;5013400;28;20492;-76
2022/01/13 08:56:05;;;;;;;73.32;30.00;;;3.00;99.90;;;4.10;100.00;102960.03;5013001;28;20564;-78
2022/01/13 08:58:31;;;;;;;65.35;28.55;;;3.00;99.90;;;4.24;100.00;102967.66;5014797;28;20025;-77
2022/01/13 09:00:57;;;;;;;69.50;28.40;;;3.00;99.90;;;4.33;100.00;102973.59;5012817;28;20025;-78
2022/01/13 09:03:23;;;;;;;72.93;29.42;;;3.00;99.90;;;4.44;100.00;102963.44;5013473;28;20033;-79
2022/01/13 09:05:49;;;;;;;75.65;30.98;;;3.00;99.90;;;4.44;100.00;102968.97;5013324;28;20038;-76
2022/01/13 09:08:24;;;;;;;75.75;30.15;;;3.10;99.90;;;4.40;100.00;102967.84;5013310;28;20044;-77
2022/01/13 09:10:50;;;;;;;68.38;29.55;;;3.10;99.90;;;4.34;100.00;102974.41;4995057;28;20038;-78
2022/01/13 09:13:16;;;;;;;68.70;29.70;;;3.10;99.90;;;4.31;100.00;102978.53;5012582;28;20481;-77
2022/01/13 09:15:57;;;;;;;70.57;30.00;;;3.10;99.90;;;4.37;100.00;102979.41;4994571;28;20040;-77
2022/01/13 09:23:51;;;;;;;66.18;26.63;;;3.50;99.90;;;4.91;100.00;102977.47;5032974;28;20045;-80
2022/01/13 09:26:17;;;;;;;67.70;28.20;;;3.60;99.90;;;5.01;100.00;102981.16;5048740;28;20078;-81
2022/01/13 09:28:43;;;;;;;66.40;27.83;;;3.70;99.90;;;5.41;100.00;102982.56;5034197;28;20061;-82
2022/01/13 09:31:12;;;;;;;65.18;28.05;;;3.90;99.90;;;5.69;97.85;102994.09;5052438;28;20051;-82
2022/01/13 09:33:39;;;;;;;63.17;28.10;;;4.10;99.90;;;5.73;96.71;102989.69;5034449;28;20145;-80
2022/01/13 09:36:09;;;;;;;62.65;26.42;;;4.20;99.90;;;5.94;96.55;103001.75;5035207;28;20079;-81
2022/01/13 09:38:36;;;;;;;59.03;26.27;;;4.40;99.90;;;6.11;96.15;103004.31;5034316;28;20037;-82
2022/01/13 09:41:04;;;;;;;67.25;28.25;;;4.60;99.90;;;6.30;92.58;103002.72;5033674;28;20025;-80
2022/01/13 09:43:30;;;;;;;63.60;26.25;;;4.70;99.90;;;6.43;92.93;103001.38;5035309;28;20032;-79
2022/01/13 09:45:59;;;;;;;58.10;26.77;;;4.90;99.90;;;6.68;93.10;103005.03;5034600;28;20074;-81
2022/01/13 09:48:29;;;;;;;63.50;28.98;;;5.10;99.90;;;6.93;91.35;103003.41;5053171;28;20025;-80
2022/01/13 09:50:55;;;;;;;57.72;26.70;;;5.30;99.90;;;7.23;89.99;103007.03;5034516;28;20025;-79
2022/01/13 09:53:21;;;;;;;60.78;28.52;;;5.60;99.90;;;7.44;87.87;103007.84;5035679;28;20029;-81
2022/01/13 09:55:50;;;;;;;66.05;29.50;;;5.70;99.90;;;7.04;87.57;103014.25;5056715;28;20036;-81
2022/01/13 09:58:18;;;;;;;64.45;29.33;;;5.50;99.90;;;6.97;87.93;103012.88;5056377;28;20036;-80
2022/01/13 10:00:45;;;;;;;58.13;27.20;;;5.50;99.90;;;6.74;87.76;103020.59;5038959;28;20040;-81
2022/01/13 10:03:26;;;;;;;64.43;29.70;;;5.30;99.90;;;6.55;88.53;103018.66;5038333;28;20051;-80
2022/01/13 10:05:58;;;;;;;63.17;30.10;;;5.10;99.90;;;6.44;89.38;103012.22;5055995;28;20379;-81
2022/01/13 10:08:59;;;;;;;58.75;27.20;;;5.00;99.90;;;6.19;90.28;103012.97;5037938;28;20036;-82
2022/01/13 10:11:53;;;;;;;64.38;27.83;;;4.80;99.90;;;6.23;91.56;103008.53;5055156;28;20380;-81
2022/01/13 10:17:15;;;;;;;63.80;28.42;;;5.10;99.90;;;6.76;88.62;103010.06;5058219;28;20033;-81
2022/01/13 10:19:46;;;;;;;;;;;5.20;99.90;;;6.75;88.10;103007.53;5060752;28;20040;-81
2022/01/13 10:22:32;;;;;;;63.30;27.65;;;5.20;99.90;;;6.77;89.35;102997.03;5039153;28;20279;-80
2022/01/13 10:24:59;;;;;;;61.17;26.40;;;5.30;99.90;;;6.91;87.88;103003.69;5059035;28;20120;-80
2022/01/13 10:27:36;;;;;;;60.22;28.85;;;5.40;99.90;;;7.15;88.29;102998.41;5039301;28;20057;-82
2022/01/13 10:30:18;;;;;;;67.95;31.63;;;5.60;99.90;;;7.35;86.28;103006.75;5052768;28;20125;-81
2022/01/13 10:32:45;;;;;;;72.82;33.30;;;5.70;99.90;;;7.64;86.05;102996.66;5051429;28;20029;-80
2022/01/13 10:35:21;;;;;;;67.32;31.27;;;6.00;99.90;;;7.70;85.07;102991.94;5036124;28;20045;-82
2022/01/13 10:37:58;;;;;;;61.90;27.27;;;6.10;99.90;;;7.48;85.65;102997.81;5036805;28;20022;-80
2022/01/13 10:40:33;;;;;;;54.75;27.00;;;6.20;99.90;;;7.72;85.47;102993.31;5036745;28;20033;-80
2022/01/13 10:46:08;;;;;;;60.70;27.25;;;6.50;99.90;;;8.12;82.60;102995.16;5037196;28;20034;-79
2022/01/13 10:48:35;;;;;;;53.63;25.23;;;6.60;99.90;;;8.14;82.75;102987.31;5033877;28;20049;-80
2022/01/13 10:51:07;;;;;;;52.78;26.40;;;6.70;99.90;;;8.40;82.02;102983.34;5037534;28;20060;-82